sensor_id;sensor_type;location;lat;lon;timestamp;temperature;humidity
42755;DHT22;28407;51.830;5.684;2023-09-08T00:00:20;23.30;65.10
42755;DHT22;28407;51.830;5.684;2023-09-08T00:02:20;23.30;65.00
42755;DHT22;28407;51.830;5.684;2023-09-08T00:04:21;23.30;65.00
42755;DHT22;28407;51.830;5.684;2023-09-08T00:06:22;23.30;65.10
42755;DHT22;28407;51.830;5.684;2023-09-08T00:08:22;23.20;64.90
42755;DHT22;28407;51.830;5.684;2023-09-08T00:10:24;23.20;65.00
42755;DHT22;28407;51.830;5.684;2023-09-08T00:12:25;23.20;65.00
42755;DHT22;28407;51.830;5.684;2023-09-08T00:14:25;23.20;65.00
42755;DHT22;28407;51.830;5.684;2023-09-08T00:16:26;23.20;65.00
42755;DHT22;28407;51.830;5.684;2023-09-08T00:18:27;23.20;65.00
42755;DHT22;28407;51.830;5.684;2023-09-08T00:20:27;23.20;65.00
42755;DHT22;28407;51.830;5.684;2023-09-08T00:22:28;23.20;65.10
42755;DHT22;28407;51.830;5.684;2023-09-08T00:24:28;23.10;65.00
42755;DHT22;28407;51.830;5.684;2023-09-08T00:26:29;23.10;65.10
42755;DHT22;28407;51.830;5.684;2023-09-08T00:28:30;23.10;65.20
42755;DHT22;28407;51.830;5.684;2023-09-08T00:30:30;23.10;65.90
42755;DHT22;28407;51.830;5.684;2023-09-08T00:32:31;23.10;65.20
42755;DHT22;28407;51.830;5.684;2023-09-08T00:34:32;23.00;65.20
42755;DHT22;28407;51.830;5.684;2023-09-08T00:36:33;23.00;65.30
42755;DHT22;28407;51.830;5.684;2023-09-08T00:38:33;23.00;65.40
42755;DHT22;28407;51.830;5.684;2023-09-08T00:40:34;23.00;65.40
42755;DHT22;28407;51.830;5.684;2023-09-08T00:42:35;22.90;65.40
42755;DHT22;28407;51.830;5.684;2023-09-08T00:44:36;22.90;65.40
42755;DHT22;28407;51.830;5.684;2023-09-08T00:46:36;22.90;65.50
42755;DHT22;28407;51.830;5.684;2023-09-08T00:48:37;22.90;65.50
42755;DHT22;28407;51.830;5.684;2023-09-08T00:50:38;22.90;65.50
42755;DHT22;28407;51.830;5.684;2023-09-08T00:52:39;22.90;65.60
42755;DHT22;28407;51.830;5.684;2023-09-08T00:54:40;22.80;65.60
42755;DHT22;28407;51.830;5.684;2023-09-08T00:56:41;22.90;65.70
42755;DHT22;28407;51.830;5.684;2023-09-08T00:58:42;22.80;65.60
42755;DHT22;28407;51.830;5.684;2023-09-08T01:00:43;22.80;65.70
42755;DHT22;28407;51.830;5.684;2023-09-08T01:02:45;22.80;65.70
42755;DHT22;28407;51.830;5.684;2023-09-08T01:04:45;22.80;65.80
42755;DHT22;28407;51.830;5.684;2023-09-08T01:06:46;22.80;65.80
42755;DHT22;28407;51.830;5.684;2023-09-08T01:08:48;22.80;65.90
42755;DHT22;28407;51.830;5.684;2023-09-08T01:10:49;22.70;65.90
42755;DHT22;28407;51.830;5.684;2023-09-08T01:12:49;22.70;65.90
42755;DHT22;28407;51.830;5.684;2023-09-08T01:14:50;22.70;65.90
42755;DHT22;28407;51.830;5.684;2023-09-08T01:16:53;22.70;66.00
42755;DHT22;28407;51.830;5.684;2023-09-08T01:18:54;22.70;66.00
42755;DHT22;28407;51.830;5.684;2023-09-08T01:23:24;22.70;65.90
42755;DHT22;28407;51.830;5.684;2023-09-08T01:25:32;22.60;65.90
42755;DHT22;28407;51.830;5.684;2023-09-08T01:27:35;22.60;66.00
42755;DHT22;28407;51.830;5.684;2023-09-08T01:29:38;22.60;66.00
42755;DHT22;28407;51.830;5.684;2023-09-08T01:31:41;22.60;66.10
42755;DHT22;28407;51.830;5.684;2023-09-08T01:33:42;22.50;66.00
42755;DHT22;28407;51.830;5.684;2023-09-08T01:35:44;22.50;66.00
42755;DHT22;28407;51.830;5.684;2023-09-08T01:37:46;22.50;66.10
42755;DHT22;28407;51.830;5.684;2023-09-08T01:39:47;22.50;66.20
42755;DHT22;28407;51.830;5.684;2023-09-08T01:41:48;22.50;66.20
42755;DHT22;28407;51.830;5.684;2023-09-08T01:43:49;22.50;66.20
42755;DHT22;28407;51.830;5.684;2023-09-08T01:45:49;22.50;66.20
42755;DHT22;28407;51.830;5.684;2023-09-08T01:47:50;22.50;66.30
42755;DHT22;28407;51.830;5.684;2023-09-08T01:49:50;22.50;66.30
42755;DHT22;28407;51.830;5.684;2023-09-08T01:51:52;22.40;66.20
42755;DHT22;28407;51.830;5.684;2023-09-08T01:53:52;22.40;66.20
42755;DHT22;28407;51.830;5.684;2023-09-08T01:55:53;22.40;66.30
42755;DHT22;28407;51.830;5.684;2023-09-08T01:57:53;22.40;66.30
42755;DHT22;28407;51.830;5.684;2023-09-08T01:59:54;22.40;66.40
42755;DHT22;28407;51.830;5.684;2023-09-08T02:01:55;22.40;66.40
42755;DHT22;28407;51.830;5.684;2023-09-08T02:03:55;22.30;66.40
42755;DHT22;28407;51.830;5.684;2023-09-08T02:05:56;22.40;66.50
42755;DHT22;28407;51.830;5.684;2023-09-08T02:07:56;22.30;66.50
42755;DHT22;28407;51.830;5.684;2023-09-08T02:09:57;22.30;66.60
42755;DHT22;28407;51.830;5.684;2023-09-08T02:11:58;22.30;66.60
42755;DHT22;28407;51.830;5.684;2023-09-08T02:14:03;22.20;66.60
42755;DHT22;28407;51.830;5.684;2023-09-08T02:16:03;22.30;66.70
42755;DHT22;28407;51.830;5.684;2023-09-08T02:18:06;22.20;66.70
42755;DHT22;28407;51.830;5.684;2023-09-08T02:20:08;22.20;66.70
42755;DHT22;28407;51.830;5.684;2023-09-08T02:22:09;22.20;66.70
42755;DHT22;28407;51.830;5.684;2023-09-08T02:24:09;22.20;66.80
42755;DHT22;28407;51.830;5.684;2023-09-08T02:26:11;22.10;66.70
42755;DHT22;28407;51.830;5.684;2023-09-08T02:28:12;22.10;66.80
42755;DHT22;28407;51.830;5.684;2023-09-08T02:30:13;22.10;66.80
42755;DHT22;28407;51.830;5.684;2023-09-08T02:32:14;22.10;66.80
42755;DHT22;28407;51.830;5.684;2023-09-08T02:34:15;22.10;66.80
42755;DHT22;28407;51.830;5.684;2023-09-08T02:36:16;22.10;66.90
42755;DHT22;28407;51.830;5.684;2023-09-08T02:38:16;22.10;67.00
42755;DHT22;28407;51.830;5.684;2023-09-08T02:40:17;22.00;67.00
42755;DHT22;28407;51.830;5.684;2023-09-08T02:42:19;22.00;67.00
42755;DHT22;28407;51.830;5.684;2023-09-08T02:44:20;22.00;67.10
42755;DHT22;28407;51.830;5.684;2023-09-08T02:46:22;22.00;67.10
42755;DHT22;28407;51.830;5.684;2023-09-08T02:48:23;22.00;67.20
42755;DHT22;28407;51.830;5.684;2023-09-08T02:50:23;21.90;67.20
42755;DHT22;28407;51.830;5.684;2023-09-08T02:52:24;22.00;67.40
42755;DHT22;28407;51.830;5.684;2023-09-08T02:54:24;21.90;67.40
42755;DHT22;28407;51.830;5.684;2023-09-08T02:56:25;21.90;67.40
42755;DHT22;28407;51.830;5.684;2023-09-08T02:58:27;21.90;67.40
42755;DHT22;28407;51.830;5.684;2023-09-08T03:00:28;21.90;67.40
42755;DHT22;28407;51.830;5.684;2023-09-08T03:02:30;21.90;67.40
42755;DHT22;28407;51.830;5.684;2023-09-08T03:04:31;21.90;67.50
42755;DHT22;28407;51.830;5.684;2023-09-08T03:06:32;21.90;67.50
42755;DHT22;28407;51.830;5.684;2023-09-08T03:08:32;21.80;67.50
42755;DHT22;28407;51.830;5.684;2023-09-08T03:10:33;21.90;67.60
42755;DHT22;28407;51.830;5.684;2023-09-08T03:12:37;21.90;67.70
42755;DHT22;28407;51.830;5.684;2023-09-08T03:14:38;21.80;67.70
42755;DHT22;28407;51.830;5.684;2023-09-08T03:16:39;21.80;67.70
42755;DHT22;28407;51.830;5.684;2023-09-08T03:18:39;21.80;67.70
42755;DHT22;28407;51.830;5.684;2023-09-08T03:20:40;21.80;67.80
42755;DHT22;28407;51.830;5.684;2023-09-08T03:22:40;21.70;67.70
42755;DHT22;28407;51.830;5.684;2023-09-08T03:24:41;21.70;67.80
42755;DHT22;28407;51.830;5.684;2023-09-08T03:26:42;21.70;67.80
42755;DHT22;28407;51.830;5.684;2023-09-08T03:28:43;21.70;67.90
42755;DHT22;28407;51.830;5.684;2023-09-08T03:30:43;21.70;67.90
42755;DHT22;28407;51.830;5.684;2023-09-08T03:32:45;21.70;67.90
42755;DHT22;28407;51.830;5.684;2023-09-08T03:34:46;21.70;68.00
42755;DHT22;28407;51.830;5.684;2023-09-08T03:36:47;21.70;68.10
42755;DHT22;28407;51.830;5.684;2023-09-08T03:38:48;21.60;68.00
42755;DHT22;28407;51.830;5.684;2023-09-08T03:40:48;21.70;68.10
42755;DHT22;28407;51.830;5.684;2023-09-08T03:42:49;21.60;68.10
42755;DHT22;28407;51.830;5.684;2023-09-08T03:44:51;21.60;68.10
42755;DHT22;28407;51.830;5.684;2023-09-08T03:46:51;21.60;68.20
42755;DHT22;28407;51.830;5.684;2023-09-08T03:48:52;21.50;68.20
42755;DHT22;28407;51.830;5.684;2023-09-08T03:50:59;21.60;68.30
42755;DHT22;28407;51.830;5.684;2023-09-08T03:52:59;21.60;68.30
42755;DHT22;28407;51.830;5.684;2023-09-08T03:55:00;21.50;68.30
42755;DHT22;28407;51.830;5.684;2023-09-08T03:57:00;21.50;68.40
42755;DHT22;28407;51.830;5.684;2023-09-08T03:59:01;21.50;68.50
42755;DHT22;28407;51.830;5.684;2023-09-08T04:01:02;21.40;68.40
42755;DHT22;28407;51.830;5.684;2023-09-08T04:03:03;21.40;68.50
42755;DHT22;28407;51.830;5.684;2023-09-08T04:05:04;21.40;68.60
42755;DHT22;28407;51.830;5.684;2023-09-08T04:07:05;21.40;68.60
42755;DHT22;28407;51.830;5.684;2023-09-08T04:09:06;21.40;68.60
42755;DHT22;28407;51.830;5.684;2023-09-08T04:11:06;21.30;68.60
42755;DHT22;28407;51.830;5.684;2023-09-08T04:13:07;21.30;68.60
42755;DHT22;28407;51.830;5.684;2023-09-08T04:15:08;21.30;68.70
42755;DHT22;28407;51.830;5.684;2023-09-08T04:17:10;21.30;68.80
42755;DHT22;28407;51.830;5.684;2023-09-08T04:19:10;21.30;68.80
42755;DHT22;28407;51.830;5.684;2023-09-08T04:21:11;21.20;68.80
42755;DHT22;28407;51.830;5.684;2023-09-08T04:23:12;21.20;68.90
42755;DHT22;28407;51.830;5.684;2023-09-08T04:25:12;21.20;68.90
42755;DHT22;28407;51.830;5.684;2023-09-08T04:27:13;21.20;68.90
42755;DHT22;28407;51.830;5.684;2023-09-08T04:29:14;21.10;69.00
42755;DHT22;28407;51.830;5.684;2023-09-08T04:31:14;21.10;69.00
42755;DHT22;28407;51.830;5.684;2023-09-08T04:33:17;21.10;69.00
42755;DHT22;28407;51.830;5.684;2023-09-08T04:35:17;21.10;69.00
42755;DHT22;28407;51.830;5.684;2023-09-08T04:37:19;21.10;69.00
42755;DHT22;28407;51.830;5.684;2023-09-08T04:39:19;21.10;69.00
42755;DHT22;28407;51.830;5.684;2023-09-08T04:41:20;21.10;69.00
42755;DHT22;28407;51.830;5.684;2023-09-08T04:43:21;21.10;69.00
42755;DHT22;28407;51.830;5.684;2023-09-08T04:45:22;21.10;69.00
42755;DHT22;28407;51.830;5.684;2023-09-08T04:47:23;21.10;69.10
42755;DHT22;28407;51.830;5.684;2023-09-08T04:49:23;21.10;69.00
42755;DHT22;28407;51.830;5.684;2023-09-08T04:51:25;21.10;69.00
42755;DHT22;28407;51.830;5.684;2023-09-08T04:53:26;21.10;69.10
42755;DHT22;28407;51.830;5.684;2023-09-08T04:55:26;21.10;69.10
42755;DHT22;28407;51.830;5.684;2023-09-08T04:57:27;21.10;69.20
42755;DHT22;28407;51.830;5.684;2023-09-08T04:59:32;21.10;69.10
42755;DHT22;28407;51.830;5.684;2023-09-08T05:01:33;21.10;69.20
42755;DHT22;28407;51.830;5.684;2023-09-08T05:03:37;21.10;69.20
42755;DHT22;28407;51.830;5.684;2023-09-08T05:05:38;21.10;69.20
42755;DHT22;28407;51.830;5.684;2023-09-08T05:07:39;21.10;69.30
42755;DHT22;28407;51.830;5.684;2023-09-08T05:09:40;21.00;69.20
42755;DHT22;28407;51.830;5.684;2023-09-08T05:11:41;21.10;69.40
42755;DHT22;28407;51.830;5.684;2023-09-08T05:13:41;21.00;69.30
42755;DHT22;28407;51.830;5.684;2023-09-08T05:15:42;21.00;69.30
42755;DHT22;28407;51.830;5.684;2023-09-08T05:17:44;21.00;69.30
42755;DHT22;28407;51.830;5.684;2023-09-08T05:19:45;21.00;69.40
42755;DHT22;28407;51.830;5.684;2023-09-08T05:21:50;21.00;69.50
42755;DHT22;28407;51.830;5.684;2023-09-08T05:23:51;21.00;69.50
42755;DHT22;28407;51.830;5.684;2023-09-08T05:25:51;21.00;69.60
42755;DHT22;28407;51.830;5.684;2023-09-08T05:27:52;21.00;69.60
42755;DHT22;28407;51.830;5.684;2023-09-08T05:29:53;21.00;69.60
42755;DHT22;28407;51.830;5.684;2023-09-08T05:31:54;21.00;69.60
42755;DHT22;28407;51.830;5.684;2023-09-08T05:33:54;21.00;69.50
42755;DHT22;28407;51.830;5.684;2023-09-08T05:35:55;21.10;69.60
42755;DHT22;28407;51.830;5.684;2023-09-08T05:37:56;21.10;69.50
42755;DHT22;28407;51.830;5.684;2023-09-08T05:39:56;21.10;69.40
42755;DHT22;28407;51.830;5.684;2023-09-08T05:41:58;21.10;69.40
42755;DHT22;28407;51.830;5.684;2023-09-08T05:43:58;21.10;69.40
42755;DHT22;28407;51.830;5.684;2023-09-08T05:45:59;21.20;69.40
42755;DHT22;28407;51.830;5.684;2023-09-08T05:48:01;21.20;69.40
42755;DHT22;28407;51.830;5.684;2023-09-08T05:50:02;21.10;69.30
42755;DHT22;28407;51.830;5.684;2023-09-08T05:52:04;21.20;69.30
42755;DHT22;28407;51.830;5.684;2023-09-08T05:54:05;21.20;69.40
42755;DHT22;28407;51.830;5.684;2023-09-08T05:56:06;21.20;69.40
42755;DHT22;28407;51.830;5.684;2023-09-08T05:58:07;21.20;69.50
42755;DHT22;28407;51.830;5.684;2023-09-08T06:00:08;21.30;69.50
42755;DHT22;28407;51.830;5.684;2023-09-08T06:02:13;21.30;69.50
42755;DHT22;28407;51.830;5.684;2023-09-08T06:04:14;21.40;69.60
42755;DHT22;28407;51.830;5.684;2023-09-08T06:06:15;21.40;69.60
42755;DHT22;28407;51.830;5.684;2023-09-08T06:08:16;21.40;69.60
42755;DHT22;28407;51.830;5.684;2023-09-08T06:10:17;21.40;69.60
42755;DHT22;28407;51.830;5.684;2023-09-08T06:12:18;21.40;69.70
42755;DHT22;28407;51.830;5.684;2023-09-08T06:14:18;21.50;69.80
42755;DHT22;28407;51.830;5.684;2023-09-08T06:16:22;21.50;69.80
42755;DHT22;28407;51.830;5.684;2023-09-08T06:18:22;21.50;69.80
42755;DHT22;28407;51.830;5.684;2023-09-08T06:20:23;21.50;69.70
42755;DHT22;28407;51.830;5.684;2023-09-08T06:22:31;21.50;69.70
42755;DHT22;28407;51.830;5.684;2023-09-08T06:24:37;21.50;69.70
42755;DHT22;28407;51.830;5.684;2023-09-08T06:27:00;21.60;69.70
42755;DHT22;28407;51.830;5.684;2023-09-08T06:29:01;21.60;69.70
42755;DHT22;28407;51.830;5.684;2023-09-08T06:31:02;21.50;69.70
42755;DHT22;28407;51.830;5.684;2023-09-08T06:33:03;21.50;69.80
42755;DHT22;28407;51.830;5.684;2023-09-08T06:35:04;21.50;69.70
42755;DHT22;28407;51.830;5.684;2023-09-08T06:37:05;21.50;69.80
42755;DHT22;28407;51.830;5.684;2023-09-08T06:39:07;21.50;69.80
42755;DHT22;28407;51.830;5.684;2023-09-08T06:41:11;21.50;69.90
42755;DHT22;28407;51.830;5.684;2023-09-08T06:43:12;21.60;69.90
42755;DHT22;28407;51.830;5.684;2023-09-08T06:45:22;21.50;69.90
42755;DHT22;28407;51.830;5.684;2023-09-08T06:47:23;21.60;69.90
42755;DHT22;28407;51.830;5.684;2023-09-08T06:49:24;21.60;69.90
42755;DHT22;28407;51.830;5.684;2023-09-08T06:51:25;21.70;69.90
42755;DHT22;28407;51.830;5.684;2023-09-08T06:53:25;21.70;69.90
42755;DHT22;28407;51.830;5.684;2023-09-08T06:55:26;21.80;69.90
42755;DHT22;28407;51.830;5.684;2023-09-08T06:57:27;21.80;69.90
42755;DHT22;28407;51.830;5.684;2023-09-08T06:59:27;21.80;69.90
42755;DHT22;28407;51.830;5.684;2023-09-08T07:01:28;21.90;69.90
42755;DHT22;28407;51.830;5.684;2023-09-08T07:03:29;21.90;69.80
42755;DHT22;28407;51.830;5.684;2023-09-08T07:05:40;21.90;69.80
42755;DHT22;28407;51.830;5.684;2023-09-08T07:07:41;21.90;69.80
42755;DHT22;28407;51.830;5.684;2023-09-08T07:09:42;21.90;69.80
42755;DHT22;28407;51.830;5.684;2023-09-08T07:11:43;22.00;69.90
42755;DHT22;28407;51.830;5.684;2023-09-08T07:13:43;22.00;69.90
42755;DHT22;28407;51.830;5.684;2023-09-08T07:15:45;22.00;69.90
42755;DHT22;28407;51.830;5.684;2023-09-08T07:17:46;22.00;69.90
42755;DHT22;28407;51.830;5.684;2023-09-08T07:19:47;22.10;69.90
42755;DHT22;28407;51.830;5.684;2023-09-08T07:21:48;22.10;69.80
42755;DHT22;28407;51.830;5.684;2023-09-08T07:23:48;22.10;69.80
42755;DHT22;28407;51.830;5.684;2023-09-08T07:25:50;22.20;69.90
42755;DHT22;28407;51.830;5.684;2023-09-08T07:27:54;22.20;69.90
42755;DHT22;28407;51.830;5.684;2023-09-08T07:29:55;22.20;70.60
42755;DHT22;28407;51.830;5.684;2023-09-08T07:31:56;22.20;69.90
42755;DHT22;28407;51.830;5.684;2023-09-08T07:33:57;22.20;69.80
42755;DHT22;28407;51.830;5.684;2023-09-08T07:36:02;22.30;69.80
42755;DHT22;28407;51.830;5.684;2023-09-08T07:38:03;22.30;69.70
42755;DHT22;28407;51.830;5.684;2023-09-08T07:40:04;22.30;69.70
42755;DHT22;28407;51.830;5.684;2023-09-08T07:42:05;22.30;69.50
42755;DHT22;28407;51.830;5.684;2023-09-08T07:44:07;22.30;69.50
42755;DHT22;28407;51.830;5.684;2023-09-08T07:46:07;22.40;69.60
42755;DHT22;28407;51.830;5.684;2023-09-08T07:48:08;22.40;69.50
42755;DHT22;28407;51.830;5.684;2023-09-08T07:50:22;22.40;69.60
42755;DHT22;28407;51.830;5.684;2023-09-08T07:52:22;22.50;69.70
42755;DHT22;28407;51.830;5.684;2023-09-08T07:54:23;22.50;69.50
42755;DHT22;28407;51.830;5.684;2023-09-08T07:56:24;22.50;69.40
42755;DHT22;28407;51.830;5.684;2023-09-08T07:58:24;22.50;69.30
42755;DHT22;28407;51.830;5.684;2023-09-08T08:00:25;22.60;69.40
42755;DHT22;28407;51.830;5.684;2023-09-08T08:02:26;22.60;69.40
42755;DHT22;28407;51.830;5.684;2023-09-08T08:04:27;22.60;69.30
42755;DHT22;28407;51.830;5.684;2023-09-08T08:06:28;22.70;69.40
42755;DHT22;28407;51.830;5.684;2023-09-08T08:08:28;22.70;69.40
42755;DHT22;28407;51.830;5.684;2023-09-08T08:10:29;22.70;69.30
42755;DHT22;28407;51.830;5.684;2023-09-08T08:12:30;22.70;69.30
42755;DHT22;28407;51.830;5.684;2023-09-08T08:14:31;22.80;69.30
42755;DHT22;28407;51.830;5.684;2023-09-08T08:16:31;22.80;69.20
42755;DHT22;28407;51.830;5.684;2023-09-08T08:18:32;22.90;69.30
42755;DHT22;28407;51.830;5.684;2023-09-08T08:20:33;22.90;69.30
42755;DHT22;28407;51.830;5.684;2023-09-08T08:22:37;22.90;69.30
42755;DHT22;28407;51.830;5.684;2023-09-08T08:24:37;22.90;69.30
42755;DHT22;28407;51.830;5.684;2023-09-08T08:26:38;23.00;69.40
42755;DHT22;28407;51.830;5.684;2023-09-08T08:28:39;23.00;69.30
42755;DHT22;28407;51.830;5.684;2023-09-08T08:30:40;23.00;69.30
42755;DHT22;28407;51.830;5.684;2023-09-08T08:32:41;23.00;69.20
42755;DHT22;28407;51.830;5.684;2023-09-08T08:34:41;23.10;69.20
42755;DHT22;28407;51.830;5.684;2023-09-08T08:36:42;23.10;69.10
42755;DHT22;28407;51.830;5.684;2023-09-08T08:38:42;23.20;69.10
42755;DHT22;28407;51.830;5.684;2023-09-08T08:40:43;23.30;69.00
42755;DHT22;28407;51.830;5.684;2023-09-08T08:42:44;23.30;68.90
42755;DHT22;28407;51.830;5.684;2023-09-08T08:44:44;23.30;68.90
42755;DHT22;28407;51.830;5.684;2023-09-08T08:46:46;23.40;69.40
42755;DHT22;28407;51.830;5.684;2023-09-08T08:48:49;23.40;68.90
42755;DHT22;28407;51.830;5.684;2023-09-08T08:50:56;23.40;69.50
42755;DHT22;28407;51.830;5.684;2023-09-08T08:52:57;23.50;68.90
42755;DHT22;28407;51.830;5.684;2023-09-08T08:54:59;23.50;68.80
42755;DHT22;28407;51.830;5.684;2023-09-08T08:57:01;23.60;68.70
42755;DHT22;28407;51.830;5.684;2023-09-08T08:59:02;23.60;68.70
42755;DHT22;28407;51.830;5.684;2023-09-08T09:01:03;23.70;68.60
42755;DHT22;28407;51.830;5.684;2023-09-08T09:03:05;23.70;68.60
42755;DHT22;28407;51.830;5.684;2023-09-08T09:05:14;23.70;68.50
42755;DHT22;28407;51.830;5.684;2023-09-08T09:07:16;23.80;68.60
42755;DHT22;28407;51.830;5.684;2023-09-08T09:09:19;23.80;68.50
42755;DHT22;28407;51.830;5.684;2023-09-08T09:11:19;23.90;68.50
42755;DHT22;28407;51.830;5.684;2023-09-08T09:13:22;24.00;68.60
42755;DHT22;28407;51.830;5.684;2023-09-08T09:15:30;24.00;68.50
42755;DHT22;28407;51.830;5.684;2023-09-08T09:17:34;24.10;68.60
42755;DHT22;28407;51.830;5.684;2023-09-08T09:19:35;24.10;68.40
42755;DHT22;28407;51.830;5.684;2023-09-08T09:21:48;24.10;68.40
42755;DHT22;28407;51.830;5.684;2023-09-08T09:23:49;24.10;68.50
42755;DHT22;28407;51.830;5.684;2023-09-08T09:25:50;24.10;68.50
42755;DHT22;28407;51.830;5.684;2023-09-08T09:28:01;24.20;68.50
42755;DHT22;28407;51.830;5.684;2023-09-08T09:30:02;24.20;68.50
42755;DHT22;28407;51.830;5.684;2023-09-08T09:32:05;24.20;68.50
42755;DHT22;28407;51.830;5.684;2023-09-08T09:34:08;24.30;68.50
42755;DHT22;28407;51.830;5.684;2023-09-08T09:36:09;24.30;68.50
42755;DHT22;28407;51.830;5.684;2023-09-08T09:38:10;24.40;68.50
42755;DHT22;28407;51.830;5.684;2023-09-08T09:40:11;24.40;68.50
42755;DHT22;28407;51.830;5.684;2023-09-08T09:42:12;24.40;68.40
42755;DHT22;28407;51.830;5.684;2023-09-08T09:44:13;24.40;68.40
42755;DHT22;28407;51.830;5.684;2023-09-08T09:46:16;24.50;68.40
42755;DHT22;28407;51.830;5.684;2023-09-08T09:48:19;24.50;68.50
42755;DHT22;28407;51.830;5.684;2023-09-08T09:50:33;24.60;68.40
42755;DHT22;28407;51.830;5.684;2023-09-08T09:52:38;24.60;68.30
42755;DHT22;28407;51.830;5.684;2023-09-08T09:54:43;24.70;68.20
42755;DHT22;28407;51.830;5.684;2023-09-08T09:56:44;24.80;68.20
42755;DHT22;28407;51.830;5.684;2023-09-08T09:58:45;24.80;68.20
42755;DHT22;28407;51.830;5.684;2023-09-08T10:00:47;24.80;68.10
42755;DHT22;28407;51.830;5.684;2023-09-08T10:02:50;24.80;68.00
42755;DHT22;28407;51.830;5.684;2023-09-08T10:04:50;24.90;68.10
42755;DHT22;28407;51.830;5.684;2023-09-08T10:06:51;24.90;68.00
42755;DHT22;28407;51.830;5.684;2023-09-08T10:08:54;25.00;68.00
42755;DHT22;28407;51.830;5.684;2023-09-08T10:10:56;25.10;67.90
42755;DHT22;28407;51.830;5.684;2023-09-08T10:13:06;25.10;67.90
42755;DHT22;28407;51.830;5.684;2023-09-08T10:15:08;25.30;67.90
42755;DHT22;28407;51.830;5.684;2023-09-08T10:17:15;25.30;67.70
42755;DHT22;28407;51.830;5.684;2023-09-08T10:19:19;25.30;67.70
42755;DHT22;28407;51.830;5.684;2023-09-08T10:21:21;25.40;67.60
42755;DHT22;28407;51.830;5.684;2023-09-08T10:23:29;25.40;67.50
42755;DHT22;28407;51.830;5.684;2023-09-08T10:25:35;25.50;67.50
42755;DHT22;28407;51.830;5.684;2023-09-08T10:27:38;25.60;67.40
42755;DHT22;28407;51.830;5.684;2023-09-08T10:29:39;25.60;67.30
42755;DHT22;28407;51.830;5.684;2023-09-08T10:31:40;25.70;67.40
42755;DHT22;28407;51.830;5.684;2023-09-08T10:33:41;25.70;67.40
42755;DHT22;28407;51.830;5.684;2023-09-08T10:35:45;25.80;67.30
42755;DHT22;28407;51.830;5.684;2023-09-08T10:37:46;25.90;67.20
42755;DHT22;28407;51.830;5.684;2023-09-08T10:39:47;25.90;67.10
42755;DHT22;28407;51.830;5.684;2023-09-08T10:41:48;26.00;67.10
42755;DHT22;28407;51.830;5.684;2023-09-08T10:44:02;26.00;66.80
42755;DHT22;28407;51.830;5.684;2023-09-08T10:46:21;26.10;66.70
42755;DHT22;28407;51.830;5.684;2023-09-08T10:48:22;26.20;66.60
42755;DHT22;28407;51.830;5.684;2023-09-08T10:50:31;26.20;66.30
42755;DHT22;28407;51.830;5.684;2023-09-08T10:52:33;26.30;66.20
42755;DHT22;28407;51.830;5.684;2023-09-08T10:54:47;26.40;66.00
42755;DHT22;28407;51.830;5.684;2023-09-08T10:56:54;26.40;66.10
42755;DHT22;28407;51.830;5.684;2023-09-08T10:58:59;26.50;66.00
42755;DHT22;28407;51.830;5.684;2023-09-08T11:01:01;26.60;65.80
42755;DHT22;28407;51.830;5.684;2023-09-08T11:03:02;26.70;65.80
42755;DHT22;28407;51.830;5.684;2023-09-08T11:07:07;26.90;65.50
42755;DHT22;28407;51.830;5.684;2023-09-08T11:09:08;26.90;65.30
42755;DHT22;28407;51.830;5.684;2023-09-08T11:11:14;27.00;65.30
42755;DHT22;28407;51.830;5.684;2023-09-08T11:13:15;27.00;65.20
42755;DHT22;28407;51.830;5.684;2023-09-08T11:15:16;27.10;65.10
42755;DHT22;28407;51.830;5.684;2023-09-08T11:17:16;27.20;65.00
42755;DHT22;28407;51.830;5.684;2023-09-08T11:19:17;27.30;64.80
42755;DHT22;28407;51.830;5.684;2023-09-08T11:21:17;27.40;64.70
42755;DHT22;28407;51.830;5.684;2023-09-08T11:23:19;27.50;64.50
42755;DHT22;28407;51.830;5.684;2023-09-08T11:25:20;27.50;64.30
42755;DHT22;28407;51.830;5.684;2023-09-08T11:27:21;27.60;64.30
42755;DHT22;28407;51.830;5.684;2023-09-08T11:29:22;27.70;64.30
42755;DHT22;28407;51.830;5.684;2023-09-08T11:31:23;27.70;64.20
42755;DHT22;28407;51.830;5.684;2023-09-08T11:33:24;27.80;64.80
42755;DHT22;28407;51.830;5.684;2023-09-08T11:35:27;27.90;64.10
42755;DHT22;28407;51.830;5.684;2023-09-08T11:37:28;28.00;64.10
42755;DHT22;28407;51.830;5.684;2023-09-08T11:39:29;28.10;63.90
42755;DHT22;28407;51.830;5.684;2023-09-08T11:41:29;28.10;63.70
42755;DHT22;28407;51.830;5.684;2023-09-08T11:43:31;28.20;63.50
42755;DHT22;28407;51.830;5.684;2023-09-08T11:45:35;28.20;63.40
42755;DHT22;28407;51.830;5.684;2023-09-08T11:47:36;28.30;63.40
42755;DHT22;28407;51.830;5.684;2023-09-08T11:49:37;28.40;63.30
42755;DHT22;28407;51.830;5.684;2023-09-08T11:51:38;28.50;63.20
42755;DHT22;28407;51.830;5.684;2023-09-08T11:53:39;28.60;63.00
42755;DHT22;28407;51.830;5.684;2023-09-08T11:55:40;28.60;62.90
42755;DHT22;28407;51.830;5.684;2023-09-08T11:57:41;28.70;62.70
42755;DHT22;28407;51.830;5.684;2023-09-08T11:59:42;28.80;62.40
42755;DHT22;28407;51.830;5.684;2023-09-08T12:01:45;28.90;62.30
42755;DHT22;28407;51.830;5.684;2023-09-08T12:03:53;28.90;62.20
42755;DHT22;28407;51.830;5.684;2023-09-08T12:05:54;29.00;62.10
42755;DHT22;28407;51.830;5.684;2023-09-08T12:07:56;29.10;62.00
42755;DHT22;28407;51.830;5.684;2023-09-08T12:09:57;29.20;61.80
42755;DHT22;28407;51.830;5.684;2023-09-08T12:12:02;29.30;61.50
42755;DHT22;28407;51.830;5.684;2023-09-08T12:14:07;29.40;61.20
42755;DHT22;28407;51.830;5.684;2023-09-08T12:16:21;29.40;60.90
42755;DHT22;28407;51.830;5.684;2023-09-08T12:18:38;29.50;60.60
42755;DHT22;28407;51.830;5.684;2023-09-08T12:20:40;29.60;60.40
42755;DHT22;28407;51.830;5.684;2023-09-08T12:22:50;29.70;60.30
42755;DHT22;28407;51.830;5.684;2023-09-08T12:26:56;29.80;60.00
42755;DHT22;28407;51.830;5.684;2023-09-08T12:28:57;29.90;60.00
42755;DHT22;28407;51.830;5.684;2023-09-08T12:30:57;30.00;60.00
42755;DHT22;28407;51.830;5.684;2023-09-08T12:32:59;30.10;59.90
42755;DHT22;28407;51.830;5.684;2023-09-08T12:35:03;30.10;59.70
42755;DHT22;28407;51.830;5.684;2023-09-08T12:37:06;30.20;59.70
42755;DHT22;28407;51.830;5.684;2023-09-08T12:39:07;30.30;59.50
42755;DHT22;28407;51.830;5.684;2023-09-08T12:41:08;30.40;59.40
42755;DHT22;28407;51.830;5.684;2023-09-08T12:43:08;30.50;59.30
42755;DHT22;28407;51.830;5.684;2023-09-08T12:45:09;30.60;59.10
42755;DHT22;28407;51.830;5.684;2023-09-08T12:47:10;30.60;58.90
42755;DHT22;28407;51.830;5.684;2023-09-08T12:49:12;30.70;58.80
42755;DHT22;28407;51.830;5.684;2023-09-08T12:51:13;30.70;58.60
42755;DHT22;28407;51.830;5.684;2023-09-08T12:53:13;30.80;58.40
42755;DHT22;28407;51.830;5.684;2023-09-08T12:55:14;30.90;58.30